Fresnal Canyon, Arizona
Current Conditions -  °F | °C
As of 1:15 AM on Monday 24 Nov 2014 (Local Time) from KAVQ Reporting Station
Clear Clear  
Wind Chill: 42°   Ceiling: Unl
Heat Index: 42°   Visibility: 10mi
Dew Point: 13°   Wind: 0mph
Humidity: 30%   Direction: NA
Pressure: 30.14"   Gusts: NA
Location:  32.0925°N, 112.129°W
Report Text: KAVQ 240815Z AUTO 00000KT 10SM CLR 06/M11 A3014 RMK AO2 T00581107
Loading
Personal Weather Stations






























Interactive Weather Map New forecast layout! Learn more

10-Day Weather Forecast

Advertisements
Track Severe Weather on mobile